Time;durP1;ratioP1;P1;durP2;ratioP2;P2;SDS_P1;SDS_P2;PMS_P1;PMS_P2;Temp;Humidity;BMP_temperature;BMP_pressure;BME280_temperature;BME280_humidity;BME280_pressure;Samples;Min_cycle;Max_cycle;Signal;HPM_P1;HPM_P2
2023/02/23 00:01:17;;;;;;;44.33;18.10;;;;;;;6.69;56.09;101179.59;4977358;28;20081;-70
2023/02/23 00:03:44;;;;;;;45.03;19.60;;;;;;;6.68;56.11;101188.25;4972213;28;20053;-72
2023/02/23 00:06:11;;;;;;;52.22;20.55;;;;;;;6.69;56.24;101190.00;4968733;28;20046;-73
2023/02/23 00:08:37;;;;;;;40.70;18.08;;;;;;;6.66;55.80;101188.31;4966404;28;20050;-74
2023/02/23 00:11:04;;;;;;;43.08;20.15;;;;;;;6.59;56.23;101183.25;4955758;28;20042;-73
2023/02/23 00:13:36;;;;;;;44.63;19.02;;;;;;;6.56;56.24;101189.34;4943739;28;20079;-73
2023/02/23 00:16:17;;;;;;;48.90;18.52;;;;;;;6.68;56.49;101188.25;4961011;28;20032;-68
2023/02/23 00:18:53;;;;;;;41.40;18.75;;;;;;;6.61;56.28;101181.47;4941870;28;20050;-70
2023/02/23 00:21:36;;;;;;;49.80;19.33;;;;;;;6.49;56.75;101182.56;4943429;28;20082;-70
2023/02/23 00:24:14;;;;;;;49.00;20.00;;;;;;;6.45;56.67;101176.56;4945452;28;20051;-70
2023/02/23 00:26:41;;;;;;;56.35;20.05;;;;;;;6.43;56.70;101178.31;4945139;28;20424;-70
2023/02/23 00:29:12;;;;;;;49.88;20.30;;;;;;;6.45;57.01;101178.31;4949576;28;20034;-70
2023/02/23 00:31:38;;;;;;;56.40;20.83;;;;;;;6.11;58.10;101185.78;4962040;28;20033;-70
2023/02/23 00:34:04;;;;;;;54.75;20.20;;;;;;;6.21;57.60;101184.72;4962781;28;20046;-71
2023/02/23 00:36:32;;;;;;;57.53;21.77;;;;;;;5.99;58.50;101177.28;4993694;28;20030;-68
2023/02/23 00:39:11;;;;;;;56.33;20.75;;;;;;;6.31;57.63;101188.94;4962123;28;20104;-69
2023/02/23 00:41:41;;;;;;;55.20;21.83;;;;;;;6.27;57.37;101182.88;4977584;28;20035;-69
2023/02/23 00:44:06;;;;;;;54.38;20.92;;;;;;;6.28;56.97;101188.97;4945369;28;20031;-72
2023/02/23 00:46:32;;;;;;;64.60;20.80;;;;;;;6.41;56.79;101176.63;4945486;28;20035;-72
2023/02/23 00:48:58;;;;;;;60.72;20.65;;;;;;;6.30;56.99;101179.41;4975077;28;20511;-71
2023/02/23 00:51:27;;;;;;;67.50;22.30;;;;;;;6.33;57.19;101187.16;4965974;28;20034;-70
2023/02/23 00:53:56;;;;;;;62.40;21.80;;;;;;;6.28;57.23;101188.97;4978310;28;20100;-71
2023/02/23 00:56:22;;;;;;;64.35;22.02;;;;;;;6.43;56.76;101183.50;4967604;28;20289;-70
2023/02/23 00:58:48;;;;;;;70.82;21.88;;;;;;;6.43;56.79;101183.50;4960959;28;20069;-71
2023/02/23 01:01:15;;;;;;;58.50;21.20;;;;;;;6.15;57.16;101187.41;4962606;28;20038;-69
2023/02/23 01:03:42;;;;;;;67.82;21.25;;;;;;;6.16;57.25;101183.97;4969552;28;20523;-69
2023/02/23 01:06:11;;;;;;;63.05;20.40;;;;;;;6.22;56.88;101183.88;4966389;28;20041;-69
2023/02/23 01:08:40;;;;;;;66.35;21.83;;;;;;;6.06;57.52;101188.44;4960018;28;20100;-68
2023/02/23 01:11:14;;;;;;;71.32;23.88;;;;;;;6.26;57.11;101185.50;4968508;28;20121;-69
2023/02/23 01:13:41;;;;;;;61.08;22.60;;;;;;;6.33;56.89;101192.38;4971505;28;20062;-72
2023/02/23 01:16:13;;;;;;;69.57;22.77;;;;;;;6.29;56.81;101180.31;4952817;28;20037;-71
2023/02/23 01:18:41;;;;;;;66.80;21.90;;;;;;;6.40;56.34;101175.78;4964921;28;20293;-71
2023/02/23 01:21:18;;;;;;;63.22;22.75;;;;;;;6.27;56.42;101182.88;4949860;28;20561;-71
2023/02/23 01:23:43;;;;;;;69.80;23.15;;;;;;;6.30;55.93;101187.19;4961797;28;20515;-76
2023/02/23 01:26:18;;;;;;;69.07;24.05;;;;;;;6.15;56.24;101190.03;4950312;28;20066;-72
2023/02/23 01:28:47;;;;;;;74.03;23.98;;;;;;;5.61;57.50;101193.44;4969274;28;20095;-69
2023/02/23 01:31:14;;;;;;;64.95;21.33;;;;;;;5.69;57.90;101188.16;4962545;28;20089;-71
2023/02/23 01:33:40;;;;;;;68.72;23.20;;;;;;;6.05;56.89;101187.56;4965677;28;20814;-71
2023/02/23 01:36:06;;;;;;;70.10;22.05;;;;;;;6.17;56.72;101196.94;4966402;28;20041;-69
2023/02/23 01:38:31;;;;;;;65.18;21.88;;;;;;;6.09;56.34;101191.84;4961774;28;20129;-69
2023/02/23 01:40:57;;;;;;;71.72;23.25;;;;;;;5.79;57.03;101193.19;4960986;28;20354;-71
2023/02/23 01:43:26;;;;;;;64.82;22.02;;;;;;;6.03;56.76;101194.53;4960270;28;20078;-69
2023/02/23 01:45:54;;;;;;;73.78;25.38;;;;;;;5.94;56.54;101189.50;4965217;28;20031;-68
2023/02/23 01:48:27;;;;;;;69.60;24.83;;;;;;;6.12;56.06;101190.09;4960449;28;20125;-69
2023/02/23 01:51:02;;;;;;;70.60;24.73;;;;;;;6.11;55.79;101190.97;4948263;28;20050;-70
2023/02/23 01:53:32;;;;;;;70.57;24.17;;;;;;;6.14;55.66;101186.56;4961179;28;20058;-72
2023/02/23 01:56:05;;;;;;;71.55;25.27;;;;;;;6.20;55.50;101191.66;4967376;28;20044;-72
2023/02/23 01:58:32;;;;;;;57.28;21.95;;;;;;;6.18;55.42;101187.41;4963534;28;20082;-72
2023/02/23 02:01:02;;;;;;;64.30;24.08;;;;;;;6.17;55.63;101188.25;4965226;28;20118;-72
2023/02/23 02:03:33;;;;;;;61.03;24.40;;;;;;;5.88;56.39;101189.56;4965582;28;20053;-72
2023/02/23 02:06:01;;;;;;;65.07;24.13;;;;;;;6.07;55.79;101180.63;4963162;28;20031;-75
2023/02/23 02:08:29;;;;;;;72.18;25.10;;;;;;;6.15;55.75;101187.41;4975165;28;20125;-73
2023/02/23 02:10:56;;;;;;;71.20;24.05;;;;;;;5.88;55.87;101186.97;4944445;28;20034;-73
2023/02/23 02:13:29;;;;;;;65.63;23.20;;;;;;;6.03;55.56;101178.97;4966665;28;20050;-75
2023/02/23 02:16:23;;;;;;;63.75;22.33;;;;;;;6.09;55.57;101173.69;4943445;28;20045;-73
2023/02/23 02:19:17;;;;;;;69.18;21.65;;;;;;;6.02;55.62;101181.59;4976650;28;20053;-75
2023/02/23 02:22:13;;;;;;;59.35;22.60;;;;;;;6.12;55.34;101177.09;4967810;28;20034;-75
2023/02/23 02:25:00;;;;;;;64.75;23.75;;;;;;;6.10;55.19;101184.91;4958564;28;20042;-71
2023/02/23 02:27:44;;;;;;;61.72;23.00;;;;;;;6.13;55.26;101177.09;4958819;28;20137;-74
2023/02/23 02:30:43;;;;;;;65.32;23.88;;;;;;;6.09;55.38;101178.03;4968530;28;20038;-72
2023/02/23 02:33:25;;;;;;;61.72;23.50;;;;;;;6.03;55.45;101181.56;4963314;28;20042;-75
2023/02/23 02:36:09;;;;;;;63.72;24.90;;;;;;;6.18;55.10;101182.19;4964416;28;20145;-75
2023/02/23 02:39:09;;;;;;;70.82;23.05;;;;;;;6.11;54.85;101184.03;4948368;28;20645;-75
2023/02/23 02:41:56;;;;;;;62.83;24.35;;;;;;;5.97;55.37;101179.09;4948801;28;20049;-76
2023/02/23 02:44:50;;;;;;;61.65;24.85;;;;;;;5.91;55.45;101180.91;4951521;28;20039;-75
2023/02/23 02:47:24;;;;;;;63.97;22.77;;;;;;;5.90;55.56;101181.78;4967375;28;20606;-72
2023/02/23 02:50:08;;;;;;;75.82;25.80;;;;;;;5.92;55.25;101167.91;4960590;28;20723;-76
2023/02/23 02:52:46;;;;;;;67.65;25.52;;;;;;;5.85;55.71;101179.25;4959395;28;20058;-69
2023/02/23 02:55:22;;;;;;;66.93;23.92;;;;;;;5.82;55.51;101174.97;4992414;28;20026;-73
2023/02/23 02:57:52;;;;;;;63.33;23.38;;;;;;;5.86;55.50;101171.47;4964714;28;20043;-72
2023/02/23 04:18:39;;;;;;;67.05;23.60;;;;;;;5.89;53.76;101209.47;4959404;28;19968;-70
2023/02/23 04:21:06;;;;;;;72.00;22.58;;;;;;;5.94;53.84;101212.00;4965392;28;20027;-75
2023/02/23 04:23:31;;;;;;;69.80;24.45;;;;;;;5.95;54.08;101217.16;4964159;28;20057;-74
2023/02/23 04:25:57;;;;;;;69.32;25.13;;;;;;;5.90;54.17;101208.56;4963431;28;20791;-74
2023/02/23 04:28:25;;;;;;;69.13;25.25;;;;;;;5.84;54.42;101208.69;4962442;28;20046;-73
2023/02/23 04:30:51;;;;;;;68.15;25.58;;;;;;;5.83;54.13;101213.00;4960696;28;20030;-73
2023/02/23 04:33:18;;;;;;;69.40;26.25;;;;;;;5.79;54.27;101215.66;4963246;28;20408;-73
2023/02/23 04:35:43;;;;;;;72.85;25.35;;;;;;;5.77;54.04;101217.41;4976955;28;20175;-70
2023/02/23 04:38:09;;;;;;;70.03;24.77;;;;;;;5.80;54.28;101217.38;4959894;28;20566;-70
2023/02/23 04:40:35;;;;;;;75.32;25.27;;;;;;;5.79;54.24;101213.94;4963673;28;20064;-75
2023/02/23 04:43:00;;;;;;;70.72;24.30;;;;;;;5.77;54.43;101218.28;4961142;28;20061;-71
2023/02/23 04:45:27;;;;;;;69.32;25.58;;;;;;;5.66;54.70;101223.63;4966438;28;20157;-72
2023/02/23 04:47:53;;;;;;;58.17;23.73;;;;;;;5.80;54.37;101227.75;4960783;28;20089;-72
2023/02/23 04:50:19;;;;;;;71.60;24.35;;;;;;;5.70;54.88;101220.97;4965769;28;20066;-74
2023/02/23 04:52:45;;;;;;;60.65;23.33;;;;;;;5.79;55.00;101216.53;4963380;28;20129;-74
2023/02/23 04:55:20;;;;;;;67.40;26.15;;;;;;;5.75;55.21;101213.97;4963358;28;20056;-74
2023/02/23 04:57:46;;;;;;;66.65;24.35;;;;;;;5.78;55.12;101211.38;4965635;28;20054;-75
2023/02/23 05:00:13;;;;;;;70.30;25.08;;;;;;;5.79;55.12;101215.66;4963765;28;20035;-72
2023/02/23 05:02:39;;;;;;;60.72;22.73;;;;;;;5.90;54.92;101207.72;4960516;28;20110;-73
2023/02/23 05:05:06;;;;;;;79.28;27.80;;;;;;;5.80;54.84;101218.22;4965738;28;20475;-73
2023/02/23 05:07:32;;;;;;;70.63;25.70;;;;;;;5.87;54.89;101225.03;4962180;28;20279;-73
2023/02/23 05:09:58;;;;;;;72.55;25.55;;;;;;;5.76;55.12;101216.56;4979507;28;20039;-72
2023/02/23 05:12:24;;;;;;;77.93;26.08;;;;;;;5.85;54.96;101220.75;4975046;28;20057;-71
2023/02/23 05:14:50;;;;;;;66.22;25.52;;;;;;;5.72;54.73;101224.41;4981762;28;20101;-72
2023/02/23 05:17:16;;;;;;;67.85;26.10;;;;;;;5.77;54.95;101228.66;4958527;28;20559;-74
2023/02/23 05:19:41;;;;;;;75.75;27.88;;;;;;;5.65;55.26;101229.66;4963172;28;20114;-72
2023/02/23 05:22:11;;;;;;;69.45;24.25;;;;;;;5.57;55.48;101230.66;4964382;28;20042;-72
2023/02/23 05:24:41;;;;;;;79.30;27.25;;;;;;;5.63;55.35;101234.03;4975902;28;20053;-71
2023/02/23 05:27:12;;;;;;;69.18;25.30;;;;;;;5.80;54.93;101239.00;4969642;28;20039;-71
2023/02/23 05:29:39;;;;;;;75.60;27.58;;;;;;;5.73;55.06;101236.53;4959854;28;20034;-73
2023/02/23 05:32:04;;;;;;;62.25;23.73;;;;;;;5.88;54.90;101234.56;4966860;28;20097;-74
2023/02/23 05:34:30;;;;;;;67.05;27.15;;;;;;;5.76;55.04;101232.13;4963122;28;20582;-72
2023/02/23 05:36:55;;;;;;;66.47;25.08;;;;;;;5.86;54.97;101232.88;4963182;28;20054;-72
2023/02/23 05:39:21;;;;;;;86.05;25.80;;;;;;;5.72;55.02;101225.25;4965658;28;20109;-69
2023/02/23 05:41:47;;;;;;;66.35;25.63;;;;;;;5.85;54.99;101225.94;4963008;28;20034;-72
2023/02/23 05:44:13;;;;;;;72.45;25.27;;;;;;;5.92;54.81;101227.56;4961568;28;21693;-72
2023/02/23 05:46:39;;;;;;;70.28;25.45;;;;;;;5.85;54.83;101239.78;4961926;28;20388;-71
2023/02/23 05:49:04;;;;;;;70.78;25.63;;;;;;;5.94;54.51;101228.41;4960516;28;20046;-69
2023/02/23 05:51:33;;;;;;;67.30;25.20;;;;;;;5.85;54.80;101236.31;4976303;28;20444;-75
2023/02/23 05:53:58;;;;;;;74.60;24.48;;;;;;;5.72;55.00;101235.63;4960090;28;20074;-76
2023/02/23 05:56:24;;;;;;;71.10;26.63;;;;;;;5.76;55.12;101231.28;4961845;28;20034;-71
2023/02/23 05:58:56;;;;;;;73.93;26.08;;;;;;;5.44;55.81;101238.59;4961463;28;20077;-68
2023/02/23 06:01:23;;;;;;;61.60;25.13;;;;;;;5.64;55.78;101229.72;4962055;28;20026;-71
2023/02/23 06:03:49;;;;;;;68.57;27.13;;;;;;;5.61;55.75;101243.59;4960467;28;20131;-70
2023/02/23 06:06:17;;;;;;;82.13;24.77;;;;;;;5.74;55.44;101240.81;4960123;28;20109;-70
2023/02/23 06:08:43;;;;;;;79.50;28.63;;;;;;;5.82;55.09;101237.22;4960249;28;20677;-69
2023/02/23 06:11:09;;;;;;;82.28;25.85;;;;;;;5.58;55.70;101241.00;4960799;28;20038;-77
2023/02/23 06:13:35;;;;;;;79.00;26.52;;;;;;;5.68;55.35;101233.97;4969525;28;20049;-74
2023/02/23 06:16:00;;;;;;;76.07;26.42;;;;;;;5.54;56.24;101241.06;4962202;28;20026;-77
2023/02/23 06:18:27;;;;;;;70.28;24.77;;;;;;;5.75;55.83;101239.91;4960161;28;20861;-75
2023/02/23 06:20:52;;;;;;;68.13;24.98;;;;;;;5.67;55.74;101233.09;4960964;28;20453;-71
2023/02/23 06:23:18;;;;;;;72.18;26.30;;;;;;;5.83;55.62;101243.28;4961950;28;20803;-70
2023/02/23 06:25:45;;;;;;;75.18;26.73;;;;;;;5.57;55.91;101241.91;4960211;28;20030;-71
2023/02/23 06:28:11;;;;;;;72.60;27.50;;;;;;;5.71;55.72;101244.31;4957747;28;20431;-71
2023/02/23 06:30:37;;;;;;;82.53;25.70;;;;;;;5.66;55.74;101238.34;4959870;28;20506;-71
2023/02/23 06:33:05;;;;;;;72.10;26.55;;;;;;;5.72;55.91;101250.34;4960306;28;20293;-73
2023/02/23 06:35:32;;;;;;;79.88;27.75;;;;;;;5.82;56.04;101252.78;4964391;28;20038;-69
2023/02/23 06:37:59;;;;;;;79.43;27.65;;;;;;;5.60;56.23;101256.56;4960784;28;20054;-73
2023/02/23 06:40:26;;;;;;;73.35;24.63;;;;;;;5.67;56.47;101263.38;4959632;28;20038;-71
2023/02/23 06:42:52;;;;;;;81.07;27.95;;;;;;;5.62;56.29;101260.84;4958192;28;20035;-70
2023/02/23 06:45:18;;;;;;;80.45;26.92;;;;;;;5.64;56.42;101269.47;4958562;28;20042;-68
2023/02/23 06:47:45;;;;;;;76.75;27.08;;;;;;;5.67;56.48;101269.41;4958003;28;20416;-70
2023/02/23 06:50:10;;;;;;;73.30;26.55;;;;;;;5.67;56.45;101281.53;4960823;28;20038;-70
2023/02/23 06:52:37;;;;;;;76.10;26.08;;;;;;;5.77;56.45;101282.25;4957802;28;20502;-70
2023/02/23 06:55:03;;;;;;;72.28;24.40;;;;;;;5.80;56.39;101285.69;4946060;28;20053;-69
2023/02/23 06:57:28;;;;;;;80.45;26.73;;;;;;;5.79;56.45;101283.97;4963465;28;20072;-70
2023/02/23 06:59:54;;;;;;;84.03;26.33;;;;;;;5.78;56.53;101282.25;4961978;28;20113;-70
2023/02/23 07:02:20;;;;;;;81.40;25.95;;;;;;;5.90;56.38;101281.22;4944427;28;20423;-70
2023/02/23 07:04:46;;;;;;;77.65;27.08;;;;;;;5.94;56.20;101282.88;4958880;28;20041;-70
2023/02/23 07:07:11;;;;;;;89.80;27.23;;;;;;;5.82;56.40;101286.53;4959529;28;20097;-70
2023/02/23 07:09:41;;;;;;;84.43;26.90;;;;;;;5.90;56.65;101291.59;4958041;28;20521;-69
2023/02/23 07:12:08;;;;;;;81.93;25.75;;;;;;;5.86;56.69;101306.34;4959435;28;20385;-69
2023/02/23 07:14:35;;;;;;;84.50;26.23;;;;;;;5.89;56.57;101300.25;4955097;28;22041;-70
2023/02/23 07:17:00;;;;;;;81.05;27.30;;;;;;;5.85;56.35;101308.97;4959355;28;20041;-72
2023/02/23 07:19:26;;;;;;;87.20;26.33;;;;;;;5.85;56.57;101303.78;4965693;28;20034;-72
2023/02/23 07:21:52;;;;;;;96.05;29.17;;;;;;;5.84;56.36;101299.47;4968657;28;20101;-72
2023/02/23 07:24:18;;;;;;;84.80;27.42;;;;;;;5.88;56.68;101308.91;4957834;28;20039;-71
2023/02/23 07:26:46;;;;;;;94.03;27.77;;;;;;;5.86;56.54;101314.13;4959674;28;20046;-69
2023/02/23 07:29:12;;;;;;;74.28;26.63;;;;;;;5.82;56.71;101317.66;4959687;28;20119;-71
2023/02/23 07:31:38;;;;;;;85.00;28.23;;;;;;;5.87;56.68;101317.59;4959822;28;20046;-69
2023/02/23 07:34:04;;;;;;;93.50;28.42;;;;;;;5.86;56.55;101326.25;4960781;28;20702;-69
2023/02/23 07:36:30;;;;;;;85.13;26.63;;;;;;;5.64;56.96;101331.72;4956461;28;20122;-75
2023/02/23 07:38:56;;;;;;;92.32;28.45;;;;;;;5.21;58.49;101332.19;4963230;28;20495;-68
2023/02/23 07:41:22;;;;;;;94.68;28.17;;;;;;;5.52;57.27;101337.03;4957596;28;20660;-71
2023/02/23 07:43:48;;;;;;;105.95;28.55;;;;;;;5.46;57.71;101334.53;4958249;28;20408;-71
2023/02/23 07:46:14;;;;;;;93.38;28.65;;;;;;;5.50;57.47;101338.78;4952965;28;20041;-70
2023/02/23 07:48:43;;;;;;;87.60;25.35;;;;;;;5.73;57.17;101335.06;4957286;28;20137;-69
2023/02/23 07:51:15;;;;;;;96.65;28.13;;;;;;;5.60;57.06;101340.41;4964286;28;20049;-69
2023/02/23 07:53:42;;;;;;;101.05;30.05;;;;;;;5.78;56.74;101338.47;4961010;28;20467;-69
2023/02/23 07:56:09;;;;;;;99.43;28.58;;;;;;;5.86;56.42;101337.50;4962329;28;20660;-68
2023/02/23 07:58:40;;;;;;;88.95;27.08;;;;;;;5.91;56.61;101342.63;4960160;28;20475;-68
2023/02/23 08:01:06;;;;;;;92.22;28.33;;;;;;;5.92;56.45;101343.47;4965102;28;20041;-69
2023/02/23 08:03:32;;;;;;;90.70;29.02;;;;;;;6.04;56.09;101344.16;4963524;28;20099;-69
2023/02/23 08:05:57;;;;;;;103.68;28.75;;;;;;;6.02;56.16;101345.94;4963288;28;20546;-68
2023/02/23 08:08:23;;;;;;;92.88;29.75;;;;;;;6.09;55.73;101355.34;4964629;28;20100;-68
2023/02/23 08:10:48;;;;;;;93.25;29.50;;;;;;;6.11;55.87;101352.72;4962743;28;20031;-69
2023/02/23 08:13:15;;;;;;;92.95;28.92;;;;;;;6.19;55.74;101353.47;4961406;28;20055;-68
2023/02/23 08:15:41;;;;;;;102.85;28.65;;;;;;;6.18;55.70;101353.50;4964799;28;20022;-68
2023/02/23 08:18:06;;;;;;;99.78;29.27;;;;;;;5.88;56.18;101355.59;4960963;28;20128;-68
2023/02/23 08:20:32;;;;;;;90.47;29.50;;;;;;;6.12;56.33;101357.03;4963065;28;20483;-68
2023/02/23 08:22:58;;;;;;;92.68;28.70;;;;;;;6.11;56.03;101362.25;4963397;28;20517;-69
2023/02/23 08:25:26;;;;;;;95.80;27.30;;;;;;;6.18;55.59;101362.16;4960590;28;20077;-69
2023/02/23 08:27:52;;;;;;;90.32;30.77;;;;;;;6.05;55.88;101358.00;4962296;28;20545;-69
2023/02/23 08:30:20;;;;;;;94.45;30.40;;;;;;;6.18;55.52;101358.69;4960160;28;20435;-67
2023/02/23 08:32:46;;;;;;;86.65;28.00;;;;;;;6.18;56.17;101359.53;4960193;28;20034;-70
2023/02/23 08:35:12;;;;;;;97.88;28.58;;;;;;;6.07;56.01;101364.03;4964993;28;20450;-68
2023/02/23 08:37:38;;;;;;;94.15;27.20;;;;;;;5.98;55.83;101357.22;4963919;28;20768;-69
2023/02/23 08:40:04;;;;;;;88.53;30.23;;;;;;;6.24;55.48;101356.03;4964899;28;20077;-68
2023/02/23 08:42:29;;;;;;;87.10;26.25;;;;;;;6.21;54.90;101358.66;4965880;28;20054;-69
2023/02/23 08:44:55;;;;;;;84.35;28.55;;;;;;;6.01;55.77;101357.16;4964953;28;20086;-70
2023/02/23 08:47:22;;;;;;;93.50;27.48;;;;;;;5.95;55.66;101359.88;4961397;28;20073;-71
2023/02/23 08:49:53;;;;;;;86.28;27.23;;;;;;;5.99;55.38;101353.72;4948698;28;20026;-69
2023/02/23 08:52:19;;;;;;;85.85;25.35;;;;;;;5.91;54.80;101362.53;4957619;28;20144;-68
2023/02/23 08:54:45;;;;;;;88.78;26.77;;;;;;;6.07;55.11;101364.88;4960782;28;20105;-69
2023/02/23 08:57:10;;;;;;;80.57;25.75;;;;;;;6.00;55.34;101372.78;4962315;28;20058;-69
2023/02/23 08:59:38;;;;;;;89.47;24.63;;;;;;;6.01;55.20;101372.72;4955780;28;20877;-70
2023/02/23 09:02:06;;;;;;;79.10;28.45;;;;;;;6.26;54.29;101369.81;4960473;28;20447;-70
2023/02/23 09:04:33;;;;;;;71.10;22.63;;;;;;;5.59;55.26;101375.00;4957792;28;20084;-70
2023/02/23 09:07:00;;;;;;;73.90;25.50;;;;;;;5.95;54.53;101378.03;4959449;28;20451;-71
2023/02/23 09:09:26;;;;;;;83.10;23.60;;;;;;;6.08;54.27;101368.31;4972518;28;20037;-70
2023/02/23 09:11:52;;;;;;;70.65;23.35;;;;;;;6.27;53.76;101379.34;4964370;28;20027;-70
2023/02/23 09:14:18;;;;;;;75.40;22.17;;;;;;;6.22;53.24;101376.81;4957531;28;21996;-70
2023/02/23 09:16:43;;;;;;;78.85;27.38;;;;;;;5.99;53.71;101379.69;4963202;28;20038;-70
2023/02/23 09:19:09;;;;;;;68.20;22.60;;;;;;;5.96;53.36;101384.06;4947092;28;20092;-69
2023/02/23 09:21:35;;;;;;;73.03;22.08;;;;;;;6.19;53.28;101386.34;4956234;28;20480;-70
2023/02/23 09:24:01;;;;;;;81.70;25.25;;;;;;;6.14;53.24;101388.16;4961572;28;20518;-70
2023/02/23 09:26:28;;;;;;;68.32;21.55;;;;;;;5.93;53.62;101392.75;4956827;28;20441;-70
2023/02/23 09:28:54;;;;;;;69.57;22.35;;;;;;;6.00;53.08;101394.38;4963082;28;20046;-70
2023/02/23 09:31:22;;;;;;;73.65;20.05;;;;;;;6.20;52.60;101385.50;4957924;28;20486;-70
2023/02/23 09:33:48;;;;;;;66.78;20.90;;;;;;;6.36;52.75;101379.22;4966830;28;20765;-71
2023/02/23 09:36:17;;;;;;;71.28;22.45;;;;;;;6.35;51.94;101387.91;4960980;28;20035;-69
2023/02/23 09:38:45;;;;;;;71.50;22.08;;;;;;;6.54;52.12;101385.91;4959143;28;20179;-69
2023/02/23 09:41:44;;;;;;;68.20;21.25;;;;;;;6.63;51.60;101393.53;4962894;28;20034;-69
2023/02/23 09:44:35;;;;;;;56.22;18.05;;;;;;;6.50;51.47;101395.47;4940616;28;20074;-68
2023/02/23 09:47:25;;;;;;;59.85;18.15;;;;;;;6.69;49.94;101395.19;4952844;28;20751;-69
2023/02/23 09:49:52;;;;;;;53.47;17.38;;;;;;;6.79;49.34;101398.50;4963176;28;20036;-67
2023/02/23 09:52:28;;;;;;;55.97;17.00;;;;;;;6.83;48.83;101401.03;4957856;28;20049;-70
2023/02/23 09:54:54;;;;;;;51.05;16.13;;;;;;;6.91;48.57;101409.56;4965305;28;20120;-71
2023/02/23 09:57:39;;;;;;;54.33;17.52;;;;;;;6.88;48.29;101394.00;4964308;28;20791;-71
2023/02/23 10:00:26;;;;;;;57.20;17.88;;;;;;;7.25;46.51;101397.75;4962177;28;20047;-68
2023/02/23 10:02:59;;;;;;;55.03;16.80;;;;;;;7.68;45.66;101403.03;4961494;28;20533;-68
2023/02/23 10:05:30;;;;;;;51.35;17.08;;;;;;;7.69;45.97;101402.16;4959455;28;20081;-69
2023/02/23 10:08:06;;;;;;;60.97;18.73;;;;;;;7.67;45.26;101396.13;4954460;28;20058;-68
2023/02/23 10:10:53;;;;;;;59.63;18.20;;;;;;;7.79;45.69;101391.56;4971220;28;20122;-69
2023/02/23 10:13:25;;;;;;;55.05;17.35;;;;;;;7.71;45.83;101405.59;4953895;28;20366;-69
2023/02/23 10:16:10;;;;;;;59.95;17.58;;;;;;;7.23;46.28;101389.13;4960070;28;20117;-69
2023/02/23 10:19:06;;;;;;;51.13;17.15;;;;;;;7.56;45.56;101400.69;4959642;28;20057;-69
2023/02/23 10:21:41;;;;;;;56.63;17.60;;;;;;;7.71;45.60;101405.59;4958218;28;20026;-70
2023/02/23 10:24:34;;;;;;;58.30;16.67;;;;;;;7.52;46.00;101399.84;4960891;28;20077;-68
2023/02/23 10:27:09;;;;;;;50.05;18.33;;;;;;;7.81;45.36;101405.41;4958301;28;20058;-70
2023/02/23 10:29:42;;;;;;;51.92;18.15;;;;;;;7.60;46.13;101410.16;4958878;28;20864;-70
2023/02/23 10:32:21;;;;;;;57.88;18.15;;;;;;;7.64;46.16;101406.56;4963575;28;20088;-70
2023/02/23 10:34:52;;;;;;;48.63;15.43;;;;;;;7.56;46.07;101413.69;4976255;28;20062;-70
2023/02/23 10:37:18;;;;;;;51.17;17.38;;;;;;;7.27;46.28;101402.03;4959922;28;20137;-70
2023/02/23 10:39:43;;;;;;;51.42;16.88;;;;;;;7.52;45.81;101410.25;4963222;28;20169;-69
2023/02/23 10:42:16;;;;;;;46.00;15.55;;;;;;;7.49;46.67;101418.09;4966452;28;20133;-68
2023/02/23 10:44:45;;;;;;;47.55;15.57;;;;;;;7.21;47.41;101412.53;4972528;28;20561;-69
2023/02/23 10:47:18;;;;;;;48.92;16.05;;;;;;;6.77;47.91;101414.09;4972560;28;20547;-69
2023/02/23 10:49:52;;;;;;;49.20;15.93;;;;;;;7.31;47.20;101408.91;4959332;28;20129;-69
2023/02/23 10:52:23;;;;;;;55.72;16.58;;;;;;;7.48;47.00;101410.31;4960356;28;20054;-70
2023/02/23 10:54:50;;;;;;;50.37;16.43;;;;;;;7.40;47.15;101412.19;4961188;28;20109;-70
2023/02/23 10:57:29;;;;;;;54.00;16.23;;;;;;;7.11;47.81;101421.38;4959718;28;20050;-69
2023/02/23 11:00:17;;;;;;;48.88;16.40;;;;;;;7.00;48.30;101423.28;4961946;28;20496;-69
2023/02/23 11:02:44;;;;;;;47.80;14.93;;;;;;;7.74;47.54;101423.72;4959347;28;20046;-70
2023/02/23 11:05:45;;;;;;;47.92;16.38;;;;;;;7.46;48.24;101417.28;4962669;28;20030;-69
2023/02/23 11:08:33;;;;;;;49.83;14.23;;;;;;;7.11;48.12;101424.84;4960601;28;20046;-71
2023/02/23 11:11:02;;;;;;;49.42;15.70;;;;;;;7.22;47.98;101434.19;4960658;28;20042;-70
2023/02/23 11:13:40;;;;;;;45.95;16.27;;;;;;;6.94;49.65;101429.44;4959150;28;20196;-69
2023/02/23 11:16:12;;;;;;;50.00;16.30;;;;;;;6.98;49.06;101425.91;4962001;28;20053;-70
2023/02/23 11:18:54;;;;;;;55.55;15.93;;;;;;;7.41;49.20;101429.53;4946132;28;20476;-69
2023/02/23 11:21:26;;;;;;;;;;;;;;;7.34;49.25;101431.38;4963987;28;20454;-70
2023/02/23 11:23:54;;;;;;;54.63;15.60;;;;;;;7.19;48.79;101429.91;4968819;28;20398;-71
2023/02/23 11:26:36;;;;;;;48.60;15.57;;;;;;;7.27;48.79;101428.03;4958794;28;20038;-71
2023/02/23 11:29:13;;;;;;;52.47;15.90;;;;;;;6.88;49.38;101427.78;4961279;28;20046;-69
2023/02/23 11:31:39;;;;;;;52.03;15.85;;;;;;;7.40;48.11;101427.81;4961102;28;20301;-70
2023/02/23 11:34:06;;;;;;;49.47;13.43;;;;;;;7.65;48.04;101429.13;4964567;28;20111;-71
2023/02/23 11:36:35;;;;;;;54.50;15.90;;;;;;;7.55;47.86;101427.56;4962351;28;20610;-71
2023/02/23 11:39:14;;;;;;;46.17;13.63;;;;;;;7.93;46.90;101426.81;4971075;28;20093;-71
2023/02/23 11:41:40;;;;;;;54.45;16.02;;;;;;;8.14;46.04;101428.13;4967228;28;20107;-71
2023/02/23 11:44:05;;;;;;;47.67;15.48;;;;;;;8.60;45.39;101434.06;4963593;28;20496;-70
2023/02/23 11:46:35;;;;;;;48.78;15.98;;;;;;;8.05;46.64;101423.13;4963965;28;20023;-70
2023/02/23 11:49:05;;;;;;;49.97;16.63;;;;;;;8.05;46.79;101433.53;4983257;28;20117;-71
2023/02/23 11:51:38;;;;;;;47.33;14.82;;;;;;;7.41;47.62;101425.19;4960312;28;20046;-70
2023/02/23 11:54:09;;;;;;;49.97;16.15;;;;;;;7.66;47.74;101438.63;4962862;28;20039;-70
2023/02/23 11:56:34;;;;;;;49.60;16.08;;;;;;;7.38;48.72;101433.06;4961425;28;20042;-70
2023/02/23 11:59:14;;;;;;;48.05;16.10;;;;;;;7.24;48.71;101428.06;4961346;28;20449;-71
2023/02/23 12:01:44;;;;;;;42.25;13.90;;;;;;;7.53;47.84;101416.28;4962195;28;20030;-71
2023/02/23 12:04:29;;;;;;;44.67;13.60;;;;;;;8.09;47.01;101414.38;4961562;28;20046;-71
2023/02/23 12:07:42;;;;;;;40.95;14.32;;;;;;;8.18;47.10;101412.44;4960581;28;20050;-70
2023/02/23 12:10:14;;;;;;;36.53;11.90;;;;;;;8.40;46.66;101413.69;4960904;28;20039;-71
2023/02/23 12:13:19;;;;;;;45.28;14.50;;;;;;;8.56;46.16;101414.19;4958488;28;20444;-71
2023/02/23 12:15:54;;;;;;;43.08;14.07;;;;;;;8.14;46.04;101417.72;4951966;28;20147;-70
2023/02/23 12:18:35;;;;;;;44.20;14.50;;;;;;;8.10;46.01;101410.88;4960697;28;20092;-70
2023/02/23 12:21:14;;;;;;;45.40;12.30;;;;;;;8.12;46.22;101403.88;4959520;28;20038;-71
2023/02/23 12:23:43;;;;;;;33.13;12.55;;;;;;;8.03;46.28;101409.28;4959102;28;20051;-70
2023/02/23 12:26:16;;;;;;;32.67;11.13;;;;;;;7.31;47.73;101410.63;4963572;28;20053;-70
2023/02/23 12:28:53;;;;;;;34.38;12.07;;;;;;;7.43;47.89;101412.16;4956903;28;20042;-70
2023/02/23 12:31:56;;;;;;;39.53;11.93;;;;;;;7.67;48.40;101410.88;4955239;28;20039;-70
2023/02/23 12:34:46;;;;;;;38.42;12.38;;;;;;;7.50;47.28;101418.97;4926936;28;20751;-70
2023/02/23 12:37:17;;;;;;;44.53;12.77;;;;;;;7.53;48.21;101409.38;4973292;28;20054;-69
2023/02/23 12:39:50;;;;;;;42.47;13.50;;;;;;;7.52;48.11;101417.19;4956270;28;21854;-69
2023/02/23 12:42:28;;;;;;;48.45;13.15;;;;;;;7.41;48.52;101424.34;4957731;28;20050;-70
2023/02/23 12:44:57;;;;;;;46.55;13.50;;;;;;;7.45;48.49;101421.66;4972737;28;20046;-70
2023/02/23 12:47:46;;;;;;;42.35;13.43;;;;;;;6.68;50.10;101437.63;4955266;28;20568;-70
2023/02/23 12:50:44;;;;;;;46.58;12.55;;;;;;;6.64;50.15;101428.16;4960064;28;20070;-71
2023/02/23 12:53:42;;;;;;;49.03;13.73;;;;;;;6.80;49.95;101436.63;4951492;28;20046;-70